createdAt,value
2023-10-18T00:00:15.480Z,-48.8
2023-10-18T00:01:15.535Z,-48.7
2023-10-18T00:02:15.496Z,-48.6
2023-10-18T00:03:15.593Z,-48.6
2023-10-18T00:04:15.586Z,-48.5
2023-10-18T00:05:15.508Z,-48.4
2023-10-18T00:06:15.450Z,-48.3
2023-10-18T00:07:15.546Z,-48.2
2023-10-18T00:08:15.507Z,-48.1
2023-10-18T00:09:15.508Z,-48
2023-10-18T00:10:15.575Z,-47.9
2023-10-18T00:11:15.491Z,-47.8
2023-10-18T00:12:15.470Z,-47.7
2023-10-18T00:13:15.539Z,-47.6
2023-10-18T00:14:15.508Z,-47.5
2023-10-18T00:15:15.457Z,-47.4
2023-10-18T00:16:15.512Z,-47.3
2023-10-18T00:17:15.469Z,-47.2
2023-10-18T00:18:15.644Z,-47.1
2023-10-18T00:19:15.524Z,-47
2023-10-18T00:20:15.492Z,-46.9
2023-10-18T00:21:15.469Z,-46.8
2023-10-18T00:22:15.556Z,-46.7
2023-10-18T00:23:15.535Z,-46.6
2023-10-18T00:24:15.510Z,-46.5
2023-10-18T00:25:15.553Z,-46.4
2023-10-18T00:26:15.511Z,-46.3
2023-10-18T00:27:15.507Z,-46.2
2023-10-18T00:28:15.539Z,-46.1
2023-10-18T00:29:15.495Z,-46
2023-10-18T00:30:15.511Z,-45.9
2023-10-18T00:31:15.576Z,-45.7
2023-10-18T00:32:15.510Z,-45.6
2023-10-18T00:33:15.453Z,-45.5
2023-10-18T00:34:15.531Z,-45.4
2023-10-18T00:35:15.495Z,-45.3
2023-10-18T00:36:15.474Z,-45.2
2023-10-18T00:37:15.503Z,-45.1
2023-10-18T00:38:15.493Z,-45
2023-10-18T00:39:15.519Z,-44.8
2023-10-18T00:40:15.510Z,-44.7
2023-10-18T00:41:15.514Z,-44.6
2023-10-18T00:42:15.510Z,-44.5
2023-10-18T00:43:15.748Z,-44.4
2023-10-18T00:44:15.506Z,-44.2
2023-10-18T00:45:15.489Z,-44.1
2023-10-18T00:46:15.681Z,-44
2023-10-18T00:47:15.494Z,-43.9
2023-10-18T00:48:15.529Z,-43.8
2023-10-18T00:49:15.859Z,-43.6
2023-10-18T00:50:15.526Z,-43.5
2023-10-18T00:51:15.494Z,-43.4
2023-10-18T00:52:15.516Z,-43.3
2023-10-18T00:53:15.491Z,-43.1
2023-10-18T00:54:15.489Z,-43
2023-10-18T00:55:15.569Z,-42.9
2023-10-18T00:56:15.498Z,-42.8
2023-10-18T00:57:16.445Z,-42.6
2023-10-18T00:58:15.523Z,-42.5
2023-10-18T00:59:15.517Z,-42.4
2023-10-18T01:00:15.478Z,-42.3
2023-10-18T01:01:15.518Z,-42.1
2023-10-18T01:02:15.520Z,-42
2023-10-18T01:03:15.552Z,-41.9
2023-10-18T01:04:15.618Z,-41.7
2023-10-18T01:05:15.474Z,-41.6
2023-10-18T01:06:15.511Z,-41.5
2023-10-18T01:07:15.567Z,-41.3
2023-10-18T01:08:15.490Z,-41.2
2023-10-18T01:09:15.500Z,-41.1
2023-10-18T01:10:15.575Z,-40.9
2023-10-18T01:11:15.525Z,-40.8
2023-10-18T01:12:15.520Z,-40.7
2023-10-18T01:13:15.533Z,-40.5
2023-10-18T01:14:15.499Z,-40.4
2023-10-18T01:15:15.531Z,-40.3
2023-10-18T01:16:15.751Z,-40.1
2023-10-18T01:17:15.513Z,-40
2023-10-18T01:18:15.486Z,-39.8
2023-10-18T01:19:15.526Z,-39.7
2023-10-18T01:20:15.515Z,-39.6
2023-10-18T01:21:15.500Z,-39.4
2023-10-18T01:22:15.528Z,-39.3
2023-10-18T01:23:15.499Z,-39.1
2023-10-18T01:24:15.560Z,-39
2023-10-18T01:25:15.552Z,-38.9
2023-10-18T01:26:15.514Z,-38.7
2023-10-18T01:27:15.508Z,-38.6
2023-10-18T01:28:15.569Z,-38.4
2023-10-18T01:29:15.495Z,-38.3
2023-10-18T01:30:15.490Z,-38.1
2023-10-18T01:31:15.598Z,-38
2023-10-18T01:32:15.511Z,-37.9
2023-10-18T01:33:15.493Z,-37.7
2023-10-18T01:34:15.506Z,-37.6
2023-10-18T01:35:15.512Z,-37.4
2023-10-18T01:36:15.507Z,-37.3
2023-10-18T01:37:15.512Z,-37.1
2023-10-18T01:38:15.529Z,-37
2023-10-18T01:39:15.457Z,-36.8
2023-10-18T01:40:15.578Z,-36.7
2023-10-18T01:41:15.519Z,-36.5
2023-10-18T01:42:15.525Z,-36.4
2023-10-18T01:43:15.566Z,-36.2
2023-10-18T01:44:15.502Z,-36.1
2023-10-18T01:45:15.505Z,-35.9
2023-10-18T01:46:15.597Z,-35.8
2023-10-18T01:47:15.542Z,-35.6
2023-10-18T01:48:15.534Z,-35.5
2023-10-18T01:49:15.543Z,-35.3
2023-10-18T01:50:15.475Z,-35.2
2023-10-18T01:51:15.513Z,-35
2023-10-18T01:52:15.557Z,-34.9
2023-10-18T01:53:15.513Z,-34.7
2023-10-18T01:54:15.538Z,-34.6
2023-10-18T01:55:15.490Z,-34.4
2023-10-18T01:56:15.479Z,-34.3
2023-10-18T01:57:15.515Z,-34.1
2023-10-18T01:58:15.578Z,-34
2023-10-18T01:59:15.526Z,-33.8
2023-10-18T02:00:15.516Z,-33.7
2023-10-18T02:01:15.568Z,-33.5
2023-10-18T02:02:15.510Z,-33.4
2023-10-18T02:03:15.572Z,-33.2
2023-10-18T02:04:15.535Z,-33.1
2023-10-18T02:05:15.494Z,-32.9
2023-10-18T02:06:15.532Z,-32.7
2023-10-18T02:07:15.559Z,-32.6
2023-10-18T02:08:15.510Z,-32.4
2023-10-18T02:09:15.509Z,-32.3
2023-10-18T02:10:15.560Z,-32.1
2023-10-18T02:11:15.477Z,-32
2023-10-18T02:12:15.516Z,-31.8
2023-10-18T02:13:15.582Z,-31.6
2023-10-18T02:14:15.521Z,-31.5
2023-10-18T02:15:15.462Z,-31.3
2023-10-18T02:16:15.601Z,-31.2
2023-10-18T02:17:15.523Z,-31
2023-10-18T02:18:15.682Z,-30.9
2023-10-18T02:19:15.554Z,-30.7
2023-10-18T02:20:15.512Z,-30.5
2023-10-18T02:21:15.466Z,-30.4
2023-10-18T02:22:15.547Z,-30.2
2023-10-18T02:23:15.499Z,-30.1
2023-10-18T02:24:15.493Z,-29.9
2023-10-18T02:25:15.520Z,-29.7
2023-10-18T02:26:15.483Z,-29.6
2023-10-18T02:27:15.494Z,-29.4
2023-10-18T02:28:15.494Z,-29.3
2023-10-18T02:29:15.497Z,-29.1
2023-10-18T02:30:15.514Z,-28.9
2023-10-18T02:31:15.515Z,-28.8
2023-10-18T02:32:15.491Z,-28.6
2023-10-18T02:33:15.511Z,-28.4
2023-10-18T02:34:28.459Z,-28.3
2023-10-18T02:35:15.487Z,-28.1
2023-10-18T02:36:15.510Z,-28
2023-10-18T02:37:15.519Z,-27.8
2023-10-18T02:38:15.470Z,-27.6
2023-10-18T02:39:15.507Z,-27.5
2023-10-18T02:40:15.509Z,-27.3
2023-10-18T02:41:15.490Z,-27.1
2023-10-18T02:42:15.486Z,-27
2023-10-18T02:43:15.529Z,-26.8
2023-10-18T02:44:15.513Z,-26.7
2023-10-18T02:45:15.648Z,-26.5
2023-10-18T02:46:15.520Z,-26.3
2023-10-18T02:47:15.463Z,-26.2
2023-10-18T02:48:15.484Z,-26
2023-10-18T02:49:15.547Z,-25.8
2023-10-18T02:50:15.808Z,-25.7
2023-10-18T02:51:15.481Z,-25.5
2023-10-18T02:52:15.549Z,-25.3
2023-10-18T02:53:15.489Z,-25.2
2023-10-18T02:54:15.498Z,-25
2023-10-18T02:55:15.507Z,-24.8
2023-10-18T02:56:15.462Z,-24.7
2023-10-18T02:57:15.480Z,-24.5
2023-10-18T02:58:15.585Z,-24.3
2023-10-18T02:59:15.443Z,-24.2
2023-10-18T03:00:15.497Z,-24
2023-10-18T03:01:15.625Z,-23.8
2023-10-18T03:02:15.479Z,-23.7
2023-10-18T03:03:15.484Z,-23.5
2023-10-18T03:04:15.596Z,-23.3
2023-10-18T03:05:15.498Z,-23.2
2023-10-18T03:06:15.702Z,-23
2023-10-18T03:07:15.608Z,-22.8
2023-10-18T03:08:15.464Z,-22.7
2023-10-18T03:09:15.478Z,-22.5
2023-10-18T03:10:15.527Z,-22.3
2023-10-18T03:11:15.481Z,-22.2
2023-10-18T03:12:15.470Z,-22
2023-10-18T03:13:15.487Z,-21.8
2023-10-18T03:14:15.471Z,-21.7
2023-10-18T03:15:15.500Z,-21.5
2023-10-18T03:16:15.546Z,-21.3
2023-10-18T03:17:15.539Z,-21.2
2023-10-18T03:18:15.519Z,-21
2023-10-18T03:19:15.495Z,-20.8
2023-10-18T03:20:15.480Z,-20.7
2023-10-18T03:21:15.494Z,-20.5
2023-10-18T03:22:15.495Z,-20.3
2023-10-18T03:23:15.501Z,-20.2
2023-10-18T03:24:15.504Z,-20
2023-10-18T03:25:15.551Z,-19.8
2023-10-18T03:26:15.508Z,-19.6
2023-10-18T03:27:15.461Z,-19.5
2023-10-18T03:28:15.547Z,-19.3
2023-10-18T03:29:15.477Z,-19.1
2023-10-18T03:30:15.507Z,-19
2023-10-18T03:31:15.518Z,-18.8
2023-10-18T03:32:15.462Z,-18.6
2023-10-18T03:33:15.579Z,-18.5
2023-10-18T03:34:15.524Z,-18.3
2023-10-18T03:35:15.454Z,-18.1
2023-10-18T03:36:20.863Z,-18
2023-10-18T03:37:15.514Z,-17.8
2023-10-18T03:38:15.493Z,-17.6
2023-10-18T03:39:15.508Z,-17.4
2023-10-18T03:40:15.550Z,-17.3
2023-10-18T03:41:15.486Z,-17.1
2023-10-18T03:42:15.500Z,-16.9
2023-10-18T03:43:15.533Z,-16.8
2023-10-18T03:44:15.467Z,-16.6
2023-10-18T03:45:15.503Z,-16.4
2023-10-18T03:46:15.683Z,-16.3
2023-10-18T03:47:15.531Z,-16.1
2023-10-18T03:48:15.499Z,-15.9
2023-10-18T03:49:15.505Z,-15.7
2023-10-18T03:50:15.467Z,-15.6
2023-10-18T03:51:15.488Z,-15.4
2023-10-18T03:52:15.586Z,-15.2
2023-10-18T03:53:15.501Z,-15.1
2023-10-18T03:54:15.502Z,-14.9
2023-10-18T03:55:15.558Z,-14.7
2023-10-18T03:56:15.494Z,-14.6
2023-10-18T03:57:15.463Z,-14.4
2023-10-18T03:58:15.545Z,-14.2
2023-10-18T03:59:15.456Z,-14
2023-10-18T04:00:15.500Z,-13.9
2023-10-18T04:01:15.572Z,-13.7
2023-10-18T04:02:15.476Z,-13.5
2023-10-18T04:03:15.502Z,-13.4
2023-10-18T04:04:15.545Z,-13.2
2023-10-18T04:05:15.489Z,-13
2023-10-18T04:06:15.431Z,-12.9
2023-10-18T04:07:15.507Z,-12.7
2023-10-18T04:08:15.919Z,-12.5
2023-10-18T04:09:15.493Z,-12.3
2023-10-18T04:10:15.468Z,-12.2
2023-10-18T04:11:15.490Z,-12
2023-10-18T04:12:15.474Z,-11.8
2023-10-18T04:13:15.754Z,-11.7
2023-10-18T04:14:15.466Z,-11.5
2023-10-18T04:15:15.450Z,-11.3
2023-10-18T04:16:15.521Z,-11.1
2023-10-18T04:17:15.485Z,-11
2023-10-18T04:18:15.483Z,-10.8
2023-10-18T04:19:15.522Z,-10.6
2023-10-18T04:20:15.465Z,-10.5
2023-10-18T04:21:15.495Z,-10.3
2023-10-18T04:22:15.508Z,-10.1
2023-10-18T04:23:15.483Z,-10
2023-10-18T04:24:15.511Z,-9.8
2023-10-18T04:25:15.659Z,-9.6
2023-10-18T04:26:15.472Z,-9.4
2023-10-18T04:27:15.475Z,-9.3
2023-10-18T04:28:15.534Z,-9.1
2023-10-18T04:29:15.483Z,-8.9
2023-10-18T04:30:15.470Z,-8.8
2023-10-18T04:31:15.575Z,-8.6
2023-10-18T04:32:15.445Z,-8.4
2023-10-18T04:33:15.532Z,-8.3
2023-10-18T04:34:15.593Z,-8.1
2023-10-18T04:35:15.481Z,-7.9
2023-10-18T04:36:15.485Z,-7.7
2023-10-18T04:37:15.493Z,-7.6
2023-10-18T04:38:15.464Z,-7.4
2023-10-18T04:39:15.467Z,-7.2
2023-10-18T04:40:15.540Z,-7.1
2023-10-18T04:41:15.487Z,-6.9
2023-10-18T04:42:15.492Z,-6.7
2023-10-18T04:43:15.442Z,-6.6
2023-10-18T04:44:15.461Z,-6.4
2023-10-18T04:45:15.482Z,-6.2
2023-10-18T04:46:15.552Z,-6.1
2023-10-18T04:47:15.644Z,-5.9
2023-10-18T04:48:15.455Z,-5.7
2023-10-18T04:49:15.511Z,-5.6
2023-10-18T04:50:15.463Z,-5.4
2023-10-18T04:51:15.441Z,-5.2
2023-10-18T04:52:15.474Z,-5
2023-10-18T04:53:15.443Z,-4.9
2023-10-18T04:54:15.437Z,-4.7
2023-10-18T04:55:15.556Z,-4.5
2023-10-18T04:56:15.459Z,-4.4
2023-10-18T04:57:15.435Z,-4.2
2023-10-18T04:58:15.524Z,-4
2023-10-18T04:59:15.463Z,-3.9
2023-10-18T05:00:15.492Z,-3.7
2023-10-18T05:01:15.553Z,-3.5
2023-10-18T05:02:15.500Z,-3.4
2023-10-18T05:03:15.560Z,-3.2
2023-10-18T05:04:15.562Z,-3
2023-10-18T05:05:15.472Z,-2.9
2023-10-18T05:06:15.471Z,-2.7
2023-10-18T05:07:15.625Z,-2.5
2023-10-18T05:08:15.478Z,-2.4
2023-10-18T05:09:15.483Z,-2.2
2023-10-18T05:10:15.693Z,-2
2023-10-18T05:11:15.481Z,-1.9
2023-10-18T05:12:15.485Z,-1.7
2023-10-18T05:13:15.561Z,-1.5
2023-10-18T05:14:15.456Z,-1.4
2023-10-18T05:15:15.445Z,-1.2
2023-10-18T05:16:15.551Z,-1
2023-10-18T05:17:15.569Z,-0.9
2023-10-18T05:18:15.486Z,-0.7
2023-10-18T05:19:15.492Z,-0.5
2023-10-18T05:20:15.466Z,-0.4
2023-10-18T05:21:15.482Z,-0.2
2023-10-18T05:22:15.571Z,0
2023-10-18T05:23:15.462Z,0
2023-10-18T05:24:15.472Z,0.2
2023-10-18T05:25:15.659Z,0.4
2023-10-18T05:26:15.444Z,0.5
2023-10-18T05:27:15.482Z,0.7
2023-10-18T05:28:15.467Z,0.9
2023-10-18T05:29:15.470Z,1
2023-10-18T05:30:15.483Z,1.2
2023-10-18T05:31:15.489Z,1.3
2023-10-18T05:32:15.507Z,1.5
2023-10-18T05:33:15.490Z,1.7
2023-10-18T05:34:15.543Z,1.8
2023-10-18T05:35:15.495Z,2
2023-10-18T05:36:15.484Z,2.2
2023-10-18T05:37:15.573Z,2.3
2023-10-18T05:38:15.491Z,2.5
2023-10-18T05:39:15.494Z,2.7
2023-10-18T05:40:15.487Z,2.8
2023-10-18T05:41:15.466Z,3
2023-10-18T05:42:15.448Z,3.1
2023-10-18T05:43:15.483Z,3.3
2023-10-18T05:44:15.491Z,3.5
2023-10-18T05:45:15.490Z,3.6
2023-10-18T05:46:15.549Z,3.8
2023-10-18T05:47:15.473Z,4
2023-10-18T05:48:15.480Z,4.1
2023-10-18T05:49:15.583Z,4.3
2023-10-18T05:50:15.467Z,4.4
2023-10-18T05:51:20.439Z,4.6
2023-10-18T05:52:15.541Z,4.8
2023-10-18T05:53:15.450Z,4.9
2023-10-18T05:54:15.469Z,5.1
2023-10-18T05:55:15.510Z,5.2
2023-10-18T05:56:15.484Z,5.4
2023-10-18T05:57:15.468Z,5.6
2023-10-18T05:58:15.508Z,5.7
2023-10-18T05:59:15.482Z,5.9
2023-10-18T06:00:15.495Z,6
2023-10-18T06:01:15.564Z,6.2
2023-10-18T06:02:15.480Z,6.4
2023-10-18T06:03:15.488Z,6.5
2023-10-18T06:04:15.545Z,6.7
2023-10-18T06:05:15.494Z,6.8
2023-10-18T06:06:15.493Z,7
2023-10-18T06:07:15.492Z,7.1
2023-10-18T06:08:15.461Z,7.3
2023-10-18T06:09:15.482Z,7.5
2023-10-18T06:10:15.457Z,7.6
2023-10-18T06:11:15.476Z,7.8
2023-10-18T06:12:15.472Z,7.9
2023-10-18T06:13:15.515Z,8.1
2023-10-18T06:14:15.482Z,8.2
2023-10-18T06:15:17.806Z,8.4
2023-10-18T06:16:15.642Z,8.6
2023-10-18T06:17:15.449Z,8.7
2023-10-18T06:18:15.449Z,8.9
2023-10-18T06:19:15.481Z,9
2023-10-18T06:20:15.554Z,9.2
2023-10-18T06:21:15.468Z,9.3
2023-10-18T06:22:15.510Z,9.5
2023-10-18T06:23:15.466Z,9.6
2023-10-18T06:24:15.491Z,9.8
2023-10-18T06:25:15.521Z,9.9
2023-10-18T06:26:15.463Z,10.1
2023-10-18T06:27:15.486Z,10.2
2023-10-18T06:28:15.513Z,10.4
2023-10-18T06:29:15.464Z,10.6
2023-10-18T06:30:15.499Z,10.7
2023-10-18T06:31:15.597Z,10.9
2023-10-18T06:32:15.515Z,11
2023-10-18T06:33:15.469Z,11.2
2023-10-18T06:34:15.510Z,11.3
2023-10-18T06:35:15.502Z,11.5
2023-10-18T06:36:15.451Z,11.6
2023-10-18T06:37:15.499Z,11.8
2023-10-18T06:38:15.471Z,11.9
2023-10-18T06:39:15.466Z,12.1
2023-10-18T06:40:15.518Z,12.2
2023-10-18T06:41:15.453Z,12.4
2023-10-18T06:42:15.459Z,12.5
2023-10-18T06:43:15.541Z,12.7
2023-10-18T06:44:15.456Z,12.8
2023-10-18T06:45:15.502Z,13
2023-10-18T06:46:15.569Z,13.1
2023-10-18T06:47:15.478Z,13.2
2023-10-18T06:48:15.484Z,13.4
2023-10-18T06:49:15.559Z,13.5
2023-10-18T06:50:18.322Z,13.7
2023-10-18T06:51:15.525Z,13.8
2023-10-18T06:52:17.805Z,14
2023-10-18T06:53:15.529Z,14.1
2023-10-18T06:54:15.493Z,14.3
2023-10-18T06:55:15.532Z,14.4
2023-10-18T06:56:15.471Z,14.6
2023-10-18T06:57:15.486Z,14.7
2023-10-18T06:58:15.531Z,14.8
2023-10-18T06:59:15.497Z,15
2023-10-18T07:00:15.462Z,15.1
2023-10-18T07:01:15.705Z,15.3
2023-10-18T07:02:15.512Z,15.4
2023-10-18T07:03:15.551Z,15.6
2023-10-18T07:04:15.525Z,15.7
2023-10-18T07:05:15.465Z,15.8
2023-10-18T07:06:15.483Z,16
2023-10-18T07:07:15.463Z,16.1
2023-10-18T07:08:15.496Z,16.3
2023-10-18T07:09:15.459Z,16.4
2023-10-18T07:10:15.502Z,16.5
2023-10-18T07:11:22.271Z,16.7
2023-10-18T07:12:15.468Z,16.8
2023-10-18T07:13:15.522Z,17
2023-10-18T07:14:15.469Z,17.1
2023-10-18T07:15:15.468Z,17.2
2023-10-18T07:16:15.697Z,17.4
2023-10-18T07:17:15.478Z,17.5
2023-10-18T07:18:15.469Z,17.7
2023-10-18T07:19:15.518Z,17.8
2023-10-18T07:20:15.503Z,17.9
2023-10-18T07:21:15.483Z,18.1
2023-10-18T07:22:15.524Z,18.2
2023-10-18T07:23:15.487Z,18.3
2023-10-18T07:24:15.477Z,18.5
2023-10-18T07:25:15.496Z,18.6
2023-10-18T07:26:15.468Z,18.7
2023-10-18T07:27:15.466Z,18.9
2023-10-18T07:28:15.501Z,19
2023-10-18T07:29:15.450Z,19.1
2023-10-18T07:30:15.715Z,19.3
2023-10-18T07:31:15.546Z,19.4
2023-10-18T07:32:15.535Z,19.5
2023-10-18T07:33:15.486Z,19.7
2023-10-18T07:34:15.508Z,19.8
2023-10-18T07:35:15.485Z,19.9
2023-10-18T07:36:15.468Z,20
2023-10-18T07:37:15.518Z,20.2
2023-10-18T07:38:17.905Z,20.3
2023-10-18T07:39:15.471Z,20.4
2023-10-18T07:40:15.510Z,20.6
2023-10-18T07:41:15.483Z,20.7
2023-10-18T07:42:15.497Z,20.8
2023-10-18T07:43:15.509Z,20.9
2023-10-18T07:44:15.481Z,21.1
2023-10-18T07:45:15.492Z,21.2
2023-10-18T07:46:15.499Z,21.3
2023-10-18T07:47:15.490Z,21.4
2023-10-18T07:48:15.494Z,21.6
2023-10-18T07:49:16.041Z,21.7
2023-10-18T07:50:15.497Z,21.8
2023-10-18T07:51:15.483Z,21.9
2023-10-18T07:52:15.503Z,22.1
2023-10-18T07:53:15.496Z,22.2
2023-10-18T07:54:15.482Z,22.3
2023-10-18T07:55:15.541Z,22.4
2023-10-18T07:56:15.464Z,22.5
2023-10-18T07:57:15.490Z,22.7
2023-10-18T07:58:15.475Z,22.8
2023-10-18T07:59:15.474Z,22.9
2023-10-18T08:00:15.490Z,23
2023-10-18T08:01:15.525Z,23.1
2023-10-18T08:02:15.466Z,23.2
2023-10-18T08:03:15.540Z,23.4
2023-10-18T08:04:15.676Z,23.5
2023-10-18T08:05:15.719Z,23.6
2023-10-18T08:06:15.548Z,23.7
2023-10-18T08:07:15.513Z,23.8
2023-10-18T08:08:15.464Z,23.9
2023-10-18T08:09:15.448Z,24.1
2023-10-18T08:10:15.517Z,24.2
2023-10-18T08:11:15.476Z,24.3
2023-10-18T08:12:15.497Z,24.4
2023-10-18T08:13:15.554Z,24.5
2023-10-18T08:14:15.484Z,24.6
2023-10-18T08:15:15.602Z,24.7
2023-10-18T08:16:15.507Z,24.8
2023-10-18T08:17:15.501Z,24.9
2023-10-18T08:18:15.450Z,25
2023-10-18T08:19:15.490Z,25.2
2023-10-18T08:20:15.491Z,25.3
2023-10-18T08:21:15.463Z,25.4
2023-10-18T08:22:15.465Z,25.5
2023-10-18T08:23:15.485Z,25.6
2023-10-18T08:24:15.478Z,25.7
2023-10-18T08:25:15.481Z,25.8
2023-10-18T08:26:15.497Z,25.9
2023-10-18T08:27:15.487Z,26
2023-10-18T08:28:15.562Z,26.1
2023-10-18T08:29:15.471Z,26.2
2023-10-18T08:30:15.470Z,26.3
2023-10-18T08:31:15.538Z,26.4
2023-10-18T08:32:15.540Z,26.5
2023-10-18T08:33:15.484Z,26.6
2023-10-18T08:34:15.597Z,26.7
2023-10-18T08:35:15.493Z,26.8
2023-10-18T08:36:15.497Z,26.9
2023-10-18T08:37:15.526Z,27
2023-10-18T08:38:15.496Z,27.1
2023-10-18T08:39:15.486Z,27.2
2023-10-18T08:40:15.548Z,27.3
2023-10-18T08:41:15.479Z,27.4
2023-10-18T08:42:15.500Z,27.5
2023-10-18T08:43:15.485Z,27.6
2023-10-18T08:44:15.467Z,27.7
2023-10-18T08:45:15.455Z,27.8
2023-10-18T08:46:15.524Z,27.8
2023-10-18T08:47:18.063Z,27.9
2023-10-18T08:48:15.512Z,28
2023-10-18T08:49:15.482Z,28.1
2023-10-18T08:50:15.471Z,28.2
2023-10-18T08:51:15.460Z,28.3
2023-10-18T08:52:15.489Z,28.4
2023-10-18T08:53:15.481Z,28.5
2023-10-18T08:54:15.465Z,28.6
2023-10-18T08:55:15.531Z,28.6
2023-10-18T08:56:15.457Z,28.7
2023-10-18T08:57:15.452Z,28.8
2023-10-18T08:58:15.522Z,28.9
2023-10-18T08:59:15.469Z,29
2023-10-18T09:00:15.468Z,29.1
2023-10-18T09:01:15.537Z,29.1
2023-10-18T09:02:15.546Z,29.2
2023-10-18T09:03:15.550Z,29.3
2023-10-18T09:04:15.535Z,29.4
2023-10-18T09:05:15.442Z,29.5
2023-10-18T09:06:15.486Z,29.5
2023-10-18T09:07:15.508Z,29.6
2023-10-18T09:08:15.466Z,29.7
2023-10-18T09:09:15.492Z,29.8
2023-10-18T09:10:15.576Z,29.8
2023-10-18T09:11:15.475Z,29.9
2023-10-18T09:12:15.462Z,30
2023-10-18T09:13:18.750Z,30.1
2023-10-18T09:14:15.550Z,30.1
2023-10-18T09:15:15.482Z,30.2
2023-10-18T09:16:15.535Z,30.3
2023-10-18T09:17:15.563Z,30.4
2023-10-18T09:18:15.528Z,30.4
2023-10-18T09:19:15.567Z,30.5
2023-10-18T09:20:15.439Z,30.6
2023-10-18T09:21:15.489Z,30.6
2023-10-18T09:22:15.562Z,30.7
2023-10-18T09:23:15.490Z,30.8
2023-10-18T09:24:15.487Z,30.8
2023-10-18T09:25:15.508Z,30.9
2023-10-18T09:26:15.466Z,30.9
2023-10-18T09:27:15.488Z,31
2023-10-18T09:28:15.569Z,31.1
2023-10-18T09:29:15.473Z,31.1
2023-10-18T09:30:15.493Z,31.2
2023-10-18T09:31:15.899Z,31.3
2023-10-18T09:32:15.526Z,31.3
2023-10-18T09:33:15.487Z,31.4
2023-10-18T09:34:15.543Z,31.4
2023-10-18T09:35:15.483Z,31.5
2023-10-18T09:36:15.468Z,31.5
2023-10-18T09:37:15.582Z,31.6
2023-10-18T09:38:15.504Z,31.6
2023-10-18T09:39:15.479Z,31.7
2023-10-18T09:40:15.516Z,31.8
2023-10-18T09:41:15.446Z,31.8
2023-10-18T09:42:15.464Z,31.9
2023-10-18T09:43:15.486Z,31.9
2023-10-18T09:44:15.457Z,32
2023-10-18T09:45:15.465Z,32
2023-10-18T09:46:15.533Z,32
2023-10-18T09:47:15.549Z,32.1
2023-10-18T09:48:15.509Z,32.1
2023-10-18T09:49:15.506Z,32.2
2023-10-18T09:50:15.489Z,32.2
2023-10-18T09:51:15.482Z,32.3
2023-10-18T09:52:15.507Z,32.3
2023-10-18T09:53:15.457Z,32.4
2023-10-18T09:54:15.506Z,32.4
2023-10-18T09:55:15.459Z,32.4
2023-10-18T09:56:15.493Z,32.5
2023-10-18T09:57:15.462Z,32.5
2023-10-18T09:58:15.513Z,32.6
2023-10-18T09:59:15.480Z,32.6
2023-10-18T10:00:15.484Z,32.6
2023-10-18T10:01:15.599Z,32.7
2023-10-18T10:02:15.635Z,32.7
2023-10-18T10:03:15.674Z,32.7
2023-10-18T10:04:16.289Z,32.8
2023-10-18T10:05:15.472Z,32.8
2023-10-18T10:06:15.448Z,32.8
2023-10-18T10:07:15.536Z,32.9
2023-10-18T10:08:15.487Z,32.9
2023-10-18T10:09:15.456Z,32.9
2023-10-18T10:10:15.505Z,32.9
2023-10-18T10:11:15.484Z,33
2023-10-18T10:12:15.484Z,33
2023-10-18T10:13:15.495Z,33
2023-10-18T10:14:15.469Z,33
2023-10-18T10:15:15.488Z,33.1
2023-10-18T10:16:15.516Z,33.1
2023-10-18T10:17:15.501Z,33.1
2023-10-18T10:18:15.536Z,33.1
2023-10-18T10:19:15.515Z,33.1
2023-10-18T10:20:15.476Z,33.2
2023-10-18T10:21:15.486Z,33.2
2023-10-18T10:22:15.534Z,33.2
2023-10-18T10:23:15.470Z,33.2
2023-10-18T10:24:15.447Z,33.2
2023-10-18T10:25:33.588Z,33.2
2023-10-18T10:26:32.472Z,33.3
2023-10-18T10:27:15.470Z,33.3
2023-10-18T10:28:15.575Z,33.3
2023-10-18T10:29:15.463Z,33.3
2023-10-18T10:30:15.466Z,33.3
2023-10-18T10:31:15.521Z,33.3
2023-10-18T10:32:15.484Z,33.3
2023-10-18T10:33:15.508Z,33.3
2023-10-18T10:34:15.467Z,33.3
2023-10-18T10:35:15.475Z,33.3
2023-10-18T10:36:15.483Z,33.3
2023-10-18T10:37:15.491Z,33.3
2023-10-18T10:38:16.378Z,33.3
2023-10-18T10:39:15.489Z,33.3
2023-10-18T10:40:15.484Z,33.3
2023-10-18T10:41:15.481Z,33.3
2023-10-18T10:42:15.463Z,33.3
2023-10-18T10:43:15.535Z,33.3
2023-10-18T10:44:15.491Z,33.3
2023-10-18T10:45:15.480Z,33.3
2023-10-18T10:46:15.553Z,33.3
2023-10-18T10:47:15.515Z,33.3
2023-10-18T10:48:15.486Z,33.3
2023-10-18T10:49:15.546Z,33.3
2023-10-18T10:50:15.508Z,33.3
2023-10-18T10:51:15.473Z,33.3
2023-10-18T10:52:15.501Z,33.3
2023-10-18T10:53:15.485Z,33.3
2023-10-18T10:54:15.471Z,33.3
2023-10-18T10:55:15.555Z,33.3
2023-10-18T10:56:15.459Z,33.2
2023-10-18T10:57:15.836Z,33.2
2023-10-18T10:58:15.558Z,33.2
2023-10-18T10:59:15.489Z,33.2
2023-10-18T11:00:15.490Z,33.2
2023-10-18T11:01:15.565Z,33.2
2023-10-18T11:02:15.529Z,33.1
2023-10-18T11:03:15.521Z,33.1
2023-10-18T11:04:15.503Z,33.1
2023-10-18T11:05:15.463Z,33.1
2023-10-18T11:06:15.497Z,33.1
2023-10-18T11:07:15.555Z,33
2023-10-18T11:08:15.433Z,33
2023-10-18T11:09:15.458Z,33
2023-10-18T11:10:15.523Z,33
2023-10-18T11:11:15.463Z,32.9
2023-10-18T11:12:15.463Z,32.9
2023-10-18T11:13:15.493Z,32.9
2023-10-18T11:14:15.481Z,32.9
2023-10-18T11:15:15.445Z,32.8
2023-10-18T11:16:15.541Z,32.8
2023-10-18T11:17:15.817Z,32.8
2023-10-18T11:18:15.471Z,32.7
2023-10-18T11:19:15.477Z,32.7
2023-10-18T11:20:15.491Z,32.7
2023-10-18T11:21:15.480Z,32.6
2023-10-18T11:22:15.478Z,32.6
2023-10-18T11:23:15.472Z,32.6
2023-10-18T11:24:15.467Z,32.5
2023-10-18T11:25:15.492Z,32.5
2023-10-18T11:26:15.486Z,32.5
2023-10-18T11:27:15.446Z,32.4
2023-10-18T11:28:15.499Z,32.4
2023-10-18T11:29:15.467Z,32.3
2023-10-18T11:30:15.506Z,32.3
2023-10-18T11:31:15.628Z,32.2
2023-10-18T11:32:15.651Z,32.2
2023-10-18T11:33:15.512Z,32.2
2023-10-18T11:34:15.651Z,32.1
2023-10-18T11:35:18.050Z,32.1
2023-10-18T11:36:15.498Z,32
2023-10-18T11:37:15.557Z,32
2023-10-18T11:38:15.504Z,31.9
2023-10-18T11:39:15.454Z,31.9
2023-10-18T11:40:15.503Z,31.8
2023-10-18T11:41:15.500Z,31.8
2023-10-18T11:42:15.493Z,31.7
2023-10-18T11:43:15.514Z,31.7
2023-10-18T11:44:15.453Z,31.6
2023-10-18T11:45:15.472Z,31.6
2023-10-18T11:46:15.532Z,31.5
2023-10-18T11:47:15.440Z,31.5
2023-10-18T11:48:15.724Z,31.4
2023-10-18T11:49:15.500Z,31.3
2023-10-18T11:50:15.494Z,31.3
2023-10-18T11:51:15.442Z,31.2
2023-10-18T11:52:15.568Z,31.2
2023-10-18T11:53:15.516Z,31.1
2023-10-18T11:54:15.459Z,31
2023-10-18T11:55:15.519Z,31
2023-10-18T11:56:15.484Z,30.9
2023-10-18T11:57:15.469Z,30.9
2023-10-18T11:58:15.482Z,30.8
2023-10-18T11:59:15.472Z,30.7
2023-10-18T12:00:15.485Z,30.7
2023-10-18T12:01:15.492Z,30.6
2023-10-18T12:02:15.542Z,30.5
2023-10-18T12:03:15.658Z,30.5
2023-10-18T12:04:15.603Z,30.4
2023-10-18T12:05:15.572Z,30.3
2023-10-18T12:06:15.497Z,30.2
2023-10-18T12:07:15.584Z,30.2
2023-10-18T12:08:15.461Z,30.1
2023-10-18T12:09:15.472Z,30
2023-10-18T12:10:15.505Z,30
2023-10-18T12:11:15.431Z,29.9
2023-10-18T12:12:15.474Z,29.8
2023-10-18T12:13:15.489Z,29.7
2023-10-18T12:14:15.464Z,29.7
2023-10-18T12:15:15.428Z,29.6
2023-10-18T12:16:15.536Z,29.5
2023-10-18T12:17:15.485Z,29.4
2023-10-18T12:18:15.515Z,29.3
2023-10-18T12:19:15.526Z,29.3
2023-10-18T12:20:15.449Z,29.2
2023-10-18T12:21:15.462Z,29.1
2023-10-18T12:22:15.484Z,29
2023-10-18T12:23:17.235Z,28.9
2023-10-18T12:24:15.490Z,28.8
2023-10-18T12:25:15.523Z,28.8
2023-10-18T12:26:15.445Z,28.7
2023-10-18T12:27:15.491Z,28.6
2023-10-18T12:28:15.528Z,28.5
2023-10-18T12:29:15.467Z,28.4
2023-10-18T12:30:30.336Z,28.3
2023-10-18T12:31:15.483Z,28.2
2023-10-18T12:32:15.563Z,28.2
2023-10-18T12:33:15.653Z,28.1
2023-10-18T12:34:15.539Z,28
2023-10-18T12:35:15.488Z,27.9
2023-10-18T12:36:15.488Z,27.8
2023-10-18T12:37:15.474Z,27.7
2023-10-18T12:38:15.549Z,27.6
2023-10-18T12:39:15.483Z,27.5
2023-10-18T12:40:15.486Z,27.4
2023-10-18T12:41:15.469Z,27.3
2023-10-18T12:42:15.490Z,27.2
2023-10-18T12:43:15.484Z,27.1
2023-10-18T12:44:15.484Z,27
2023-10-18T12:45:15.465Z,26.9
2023-10-18T12:46:15.585Z,26.8
2023-10-18T12:47:15.450Z,26.7
2023-10-18T12:48:15.496Z,26.7
2023-10-18T12:49:15.500Z,26.6
2023-10-18T12:50:15.470Z,26.5
2023-10-18T12:51:15.482Z,26.4
2023-10-18T12:52:15.437Z,26.2
2023-10-18T12:53:15.541Z,26.1
2023-10-18T12:55:15.516Z,25.9
2023-10-18T12:56:15.466Z,25.8
2023-10-18T12:57:15.521Z,25.7
2023-10-18T12:58:15.486Z,25.6
2023-10-18T12:59:15.525Z,25.5
2023-10-18T13:00:15.484Z,25.4
2023-10-18T13:01:15.486Z,25.3
2023-10-18T13:02:15.511Z,25.2
2023-10-18T13:03:15.509Z,25.1
2023-10-18T13:04:15.449Z,25
2023-10-18T13:05:15.555Z,24.9
2023-10-18T13:06:15.487Z,24.8
2023-10-18T13:07:15.481Z,24.7
2023-10-18T13:08:15.556Z,24.5
2023-10-18T13:09:15.463Z,24.4
2023-10-18T13:10:15.465Z,24.3
2023-10-18T13:11:16.015Z,24.2
2023-10-18T13:12:15.535Z,24.1
2023-10-18T13:13:15.487Z,24
2023-10-18T13:14:15.483Z,23.9
2023-10-18T13:15:15.483Z,23.8
2023-10-18T13:16:15.547Z,23.6
2023-10-18T13:17:15.500Z,23.5
2023-10-18T13:18:15.499Z,23.4